Arlington, WA

6:36 AM PST on February 09, 2016 (GMT -0800)
Arlington Municipal | | Change Station
CLOSE
Current Station
Airport
Location: Arlington,
Elevation: 138 ft
Nearby Weather Stations

Elev 138 ft 48.16 °N, 122.16 °W | Updated 1 minute ago

Partly Cloudy
Partly Cloudy
32 °F
Feels Like 32 °F
N
0
Wind Variable Wind from North

Today
High -- | Low -- °F
--% Chance of Precip.
Yesterday
High -- | Low -- °F
Precip. -- in
Pressure 30.21 in
Visibility 1.8 miles
Clouds Mostly Cloudy 200 ft
Dew Point 27 °F
Humidity 80%
Rainfall 0.00 in
Snow Depth Not available.
7:25 AM 5:19 PM
New Moon, 1% visible
METAR KAWO 091435Z AUTO 00000KT 1 3/4SM BKN002 00/M03 A3021 RMK AO1 VIS 1V4
Pressure 30.21 in
Visibility 1.8 miles
Clouds Mostly Cloudy 200 ft
Dew Point 27 °F
Humidity 80%
Rainfall 0.00 in
Snow Depth Not available.
7:25 AM 5:19 PM
New Moon, 1% visible
METAR KAWO 091435Z AUTO 00000KT 1 3/4SM BKN002 00/M03 A3021 RMK AO1 VIS 1V4

10-Day Weather Forecast

Almanac

Astronomy

Feb. 09, 2016 Rise Set
Actual Time
Civil Twilight
Nautical Twilight
Astronomical Twilight
Moon
Length of Visible Light
Length of Day
Tomorrow will be .
, % of the Moon is Illuminated

Today's Extremes

State Highs State Lows

Community

WunderPhotos

Upload Photos

1,891,606 photos uploaded!

WunderBlog® & News

Nearby

Air Quality

  Air Quality AQ Index Pollutant
Not available.

Snow Depth

Station Depth Elevation

Earthquake Activity

City Distance Mag. Time & Date
Minimum magnitude displayed is 2.5.

Coastal Water Temperatures

Place Temperature

Stations

Nearby Weather Stations

Station Location Temp. Windchill Dew Point Humidity Wind Precip. Elev Updated Type
                   

Watches & Warnings

There are currently no watches in effect.